Mari Lampton — WDE3648 — position and weather

sailwx.info

Track history (hours):
 
Tides and Currents Weather Stations Pressure Air Temp Water Temp Dewpoint Dewpoint Depression Visibility Wind Speed Wind Dir Waves Ship Positions

Mari Lampton

Owner: MAgnolia Marine Transport Company, Vicksburg, MS. More information available from US FCC via Universal Licensing System and Coast Guard Vessel Documentation Center.

Last reported at 2017-Feb-14 22:34 UTC. Time now 2017-Feb-21 12:20 UTC.
Position N 32°35' W 091°08'.

Length 34 m.

Type: Towing. MMSI: 367342210.

Date/timePositionNaut miles runAvg speedWind from/ knotsBaromVisibWave heightAir tempDewpointWater temp
2017-Feb-14 22:34N 32°35' W 091°08'6 4.3
2017-Feb-14 21:12N 32°30' W 091°07'3 5.0
2017-Feb-14 20:33N 32°27' W 091°05'5 4.8
2017-Feb-14 19:34N 32°25' W 090°60'4 3.8
2017-Feb-14 18:34N 32°21' W 090°59'3 3.3
2017-Feb-14 17:34N 32°21' W 090°55'1 1.1
2017-Feb-14 16:33N 32°20' W 090°54'0 0.0
2017-Feb-14 15:33N 32°20' W 090°54'0 0.0
2017-Feb-14 14:34N 32°20' W 090°54'0 0.0
2017-Feb-14 13:34N 32°20' W 090°54'0 0.0
2017-Feb-14 12:34N 32°20' W 090°54'0 0.0
2017-Feb-14 11:34N 32°20' W 090°54'0 0.0
2017-Feb-14 10:34N 32°20' W 090°54'0 0.2
2017-Feb-14 09:34N 32°20' W 090°54'4 4.2
2017-Feb-14 08:34N 32°17' W 090°57'4 4.4
2017-Feb-14 07:33N 32°13' W 090°59'4 4.3
2017-Feb-14 06:33N 32°09' W 091°00'5 4.1
2017-Feb-14 05:22N 32°08' W 091°06'7 4.1
2017-Feb-14 03:33N 32°01' W 091°05'  
2017-Feb-10 06:10N 29°48' W 091°49'7 4.7
2017-Feb-10 04:33N 29°50' W 091°57'6 6.1
2017-Feb-10 03:33N 29°48' W 092°04'6 6.0
2017-Feb-10 02:33N 29°47' W 092°11'5 4.9
2017-Feb-10 01:33N 29°48' W 092°16'5 5.3
2017-Feb-10 00:33N 29°51' W 092°21'37 5.2
2017-Feb-09 17:27N 29°56' W 093°03'5 5.6
2017-Feb-09 16:33N 29°56' W 093°09'6 5.5
2017-Feb-09 15:33N 30°00' W 093°14'5 5.2
2017-Feb-09 14:33N 30°05' W 093°17'2 2.0
2017-Feb-09 13:33N 30°06' W 093°18'0 0.0
2017-Feb-09 12:33N 30°06' W 093°18'0 0.0
2017-Feb-09 11:33N 30°06' W 093°18'0 0.1
2017-Feb-09 10:33N 30°06' W 093°18'0 0.2
2017-Feb-09 09:33N 30°06' W 093°18'6 5.5
2017-Feb-09 08:33N 30°04' W 093°24'6 5.7
2017-Feb-09 07:33N 30°04' W 093°31'6 5.8
2017-Feb-09 06:33N 30°03' W 093°37'9 2.8
2017-Feb-09 03:31N 29°60' W 093°46'65 5.0
2017-Feb-08 14:31N 29°33' W 094°54'10 9.5
2017-Feb-08 13:31N 29°41' W 094°59'1 0.1
2017-Feb-08 04:32N 29°41' W 095°00'0 0.0
2017-Feb-08 03:28N 29°41' W 095°00'0 0.0
2017-Feb-08 00:28N 29°41' W 095°00'1 1.0
2017-Feb-07 23:33N 29°42' W 095°00'6 2.5
2017-Feb-07 21:17N 29°46' W 095°05'2 0.1
2017-Feb-07 00:08N 29°45' W 095°04'4 7.1
2017-Feb-06 23:33N 29°42' W 095°00'2 1.8
2017-Feb-06 22:32N 29°44' W 095°01'0 0.0
2017-Feb-06 21:13N 29°44' W 095°02'4 0.8
2017-Feb-06 16:32N 29°46' W 095°05'1 0.0
2017-Feb-04 23:10N 29°46' W 095°05'  
Track history (hours):
 
Tides and Currents Weather Stations Pressure Air Temp Water Temp Dewpoint Dewpoint Depression Visibility Wind Speed Wind Dir Waves Ship Positions

Mari Lampton

Owner: MAgnolia Marine Transport Company, Vicksburg, MS. More information available from US FCC via Universal Licensing System and Coast Guard Vessel Documentation Center.

Last reported at 2017-Feb-14 22:34 UTC. Time now 2017-Feb-21 12:20 UTC.
Position N 32°35' W 091°08'.

Length 34 m.

Type: Towing. MMSI: 367342210.

Date/timePositionNaut miles runAvg speedWind from/ knotsBaromVisibWave heightAir tempDewpointWater temp
2017-Feb-14 22:34N 32°35' W 091°08'6 4.3
2017-Feb-14 21:12N 32°30' W 091°07'3 5.0
2017-Feb-14 20:33N 32°27' W 091°05'5 4.8
2017-Feb-14 19:34N 32°25' W 090°60'4 3.8
2017-Feb-14 18:34N 32°21' W 090°59'3 3.3
2017-Feb-14 17:34N 32°21' W 090°55'1 1.1
2017-Feb-14 16:33N 32°20' W 090°54'0 0.0
2017-Feb-14 15:33N 32°20' W 090°54'0 0.0
2017-Feb-14 14:34N 32°20' W 090°54'0 0.0
2017-Feb-14 13:34N 32°20' W 090°54'0 0.0
2017-Feb-14 12:34N 32°20' W 090°54'0 0.0
2017-Feb-14 11:34N 32°20' W 090°54'0 0.0
2017-Feb-14 10:34N 32°20' W 090°54'0 0.2
2017-Feb-14 09:34N 32°20' W 090°54'4 4.2
2017-Feb-14 08:34N 32°17' W 090°57'4 4.4
2017-Feb-14 07:33N 32°13' W 090°59'4 4.3
2017-Feb-14 06:33N 32°09' W 091°00'5 4.1
2017-Feb-14 05:22N 32°08' W 091°06'7 4.1
2017-Feb-14 03:33N 32°01' W 091°05'  
2017-Feb-10 06:10N 29°48' W 091°49'7 4.7
2017-Feb-10 04:33N 29°50' W 091°57'6 6.1
2017-Feb-10 03:33N 29°48' W 092°04'6 6.0
2017-Feb-10 02:33N 29°47' W 092°11'5 4.9
2017-Feb-10 01:33N 29°48' W 092°16'5 5.3
2017-Feb-10 00:33N 29°51' W 092°21'37 5.2
2017-Feb-09 17:27N 29°56' W 093°03'5 5.6
2017-Feb-09 16:33N 29°56' W 093°09'6 5.5
2017-Feb-09 15:33N 30°00' W 093°14'5 5.2
2017-Feb-09 14:33N 30°05' W 093°17'2 2.0
2017-Feb-09 13:33N 30°06' W 093°18'0 0.0
2017-Feb-09 12:33N 30°06' W 093°18'0 0.0
2017-Feb-09 11:33N 30°06' W 093°18'0 0.1
2017-Feb-09 10:33N 30°06' W 093°18'0 0.2
2017-Feb-09 09:33N 30°06' W 093°18'6 5.5
2017-Feb-09 08:33N 30°04' W 093°24'6 5.7
2017-Feb-09 07:33N 30°04' W 093°31'6 5.8
2017-Feb-09 06:33N 30°03' W 093°37'9 2.8
2017-Feb-09 03:31N 29°60' W 093°46'65 5.0
2017-Feb-08 14:31N 29°33' W 094°54'10 9.5
2017-Feb-08 13:31N 29°41' W 094°59'1 0.1
2017-Feb-08 04:32N 29°41' W 095°00'0 0.0
2017-Feb-08 03:28N 29°41' W 095°00'0 0.0
2017-Feb-08 00:28N 29°41' W 095°00'1 1.0
2017-Feb-07 23:33N 29°42' W 095°00'6 2.5
2017-Feb-07 21:17N 29°46' W 095°05'2 0.1
2017-Feb-07 00:08N 29°45' W 095°04'4 7.1
2017-Feb-06 23:33N 29°42' W 095°00'2 1.8
2017-Feb-06 22:32N 29°44' W 095°01'0 0.0
2017-Feb-06 21:13N 29°44' W 095°02'4 0.8
2017-Feb-06 16:32N 29°46' W 095°05'1 0.0
2017-Feb-04 23:10N 29°46' W 095°05'  

Dump ship's entire track history